GCC Virtual Airport Information Service

Manchester Airport

ICAO: EGCC Country: GB
Latitude: 53.3537 Longitude: -2.27495
Latest Arrival : OMA8141 (OOMS-EGCC) Latest Departure : OMA8141 (EGCC-OOMS)


WX CaptureLIVE
Data provided by noaa.gov | Fetched at 06:16:07

METAR : EGCC 270550Z AUTO VRB02KT 5000 BR OVC006 07/07 Q1009 TEMPO NSW BKN009

TAF : EGCC 270458Z 2706/2812 VRB03KT 7000 BKN008 TEMPO 2706/2710 3000 BR BKN003 BECMG 2710/2713 9999 NSW BKN016 PROB40 TEMPO 2713/2721 7000 BKN014 BECMG 2721/2724 09010KT TEMPO 2721/2812 6000 RA BKN014 PROB30 TEMPO 2722/2809 4000 RADZ BR BKN008 PROB30 TEMPO 2800/2806 10015G25KT BECMG 2806/2809 VRB03KT


Runway Data for EGCC
Data provided by openaviationdata.com

Runway ID Mag Var Hdg Length Elevation Surface ILS Freq ILS Id ILS Slope
05L -4 55° 9988 ft 257 ft Asphalt 109.5 IMM 3
05R -4 55° 9978 ft 257 ft Asphalt 111.55 IMC 3
23L -4 235° 9978 ft 257 ft Asphalt -- -- --
23R -4 235° 9988 ft 257 ft Asphalt 109.5 INN 3

Manchester Airport, GB
Use only for reference purposes



Not for navigational purposes.